createdAt,value
2024-04-18T00:02:38.214Z,72.37
2024-04-18T00:07:39.832Z,72.58
2024-04-18T00:12:41.620Z,71.33
2024-04-18T00:17:43.641Z,71.26
2024-04-18T00:22:45.247Z,71.50
2024-04-18T00:27:46.901Z,73.24
2024-04-18T00:32:48.563Z,72.15
2024-04-18T00:37:50.110Z,71.40
2024-04-18T00:42:51.681Z,71.91
2024-04-18T00:47:54.120Z,72.15
2024-04-18T00:52:57.727Z,72.26
2024-04-18T00:57:59.495Z,73.13
2024-04-18T01:03:01.063Z,73.50
2024-04-18T01:08:02.603Z,73.74
2024-04-18T01:13:04.151Z,73.46
2024-04-18T01:18:05.784Z,73.95
2024-04-18T01:23:07.378Z,73.97
2024-04-18T01:28:08.938Z,72.91
2024-04-18T01:33:11.157Z,73.24
2024-04-18T01:38:12.817Z,74.00
2024-04-18T01:43:14.390Z,73.86
2024-04-18T01:48:16.116Z,73.96
2024-04-18T01:53:17.731Z,73.38
2024-04-18T01:58:19.282Z,73.73
2024-04-18T02:03:21.014Z,74.14
2024-04-18T02:08:22.617Z,73.94
2024-04-18T02:13:24.147Z,74.71
2024-04-18T02:18:25.847Z,74.02
2024-04-18T02:23:27.694Z,73.48
2024-04-18T02:28:30.733Z,73.19
2024-04-18T02:33:32.827Z,74.18
2024-04-18T02:38:35.609Z,72.87
2024-04-18T02:43:37.486Z,73.24
2024-04-18T02:48:39.553Z,73.31
2024-04-18T02:53:41.216Z,72.67
2024-04-18T02:58:42.877Z,72.70
2024-04-18T03:03:44.534Z,72.96
2024-04-18T03:08:46.212Z,73.33
2024-04-18T03:13:47.774Z,73.56
2024-04-18T03:18:49.555Z,73.52
2024-04-18T03:23:51.128Z,73.90
2024-04-18T03:28:52.763Z,73.99
2024-04-18T03:33:54.394Z,74.23
2024-04-18T03:38:55.980Z,74.51
2024-04-18T03:43:59.946Z,74.80
2024-04-18T03:49:02.064Z,75.57
2024-04-18T03:54:03.918Z,76.23
2024-04-18T03:59:05.458Z,77.06
2024-04-18T04:04:07.568Z,77.36
2024-04-18T04:09:09.255Z,77.03
2024-04-18T04:14:12.413Z,77.30
2024-04-18T04:19:14.170Z,77.16
2024-04-18T04:24:16.134Z,78.05
2024-04-18T04:29:17.789Z,77.73
2024-04-18T04:34:20.306Z,79.00
2024-04-18T04:39:21.903Z,78.62
2024-04-18T04:44:23.479Z,79.17
2024-04-18T04:49:25.115Z,80.03
2024-04-18T04:54:26.851Z,80.59
2024-04-18T04:59:28.539Z,81.48
2024-04-18T05:04:30.503Z,81.60
2024-04-18T05:09:32.064Z,82.38
2024-04-18T05:14:33.676Z,82.50
2024-04-18T05:19:35.503Z,82.40
2024-04-18T05:24:37.160Z,82.03
2024-04-18T05:29:57.364Z,82.43
2024-04-18T05:34:58.958Z,82.42
2024-04-18T05:40:00.712Z,82.25
2024-04-18T05:45:02.428Z,81.50
2024-04-18T05:50:04.302Z,82.79
2024-04-18T05:55:06.373Z,82.45
2024-04-18T06:00:08.336Z,82.29
2024-04-18T06:05:09.922Z,82.31
2024-04-18T06:10:11.535Z,82.05
2024-04-18T06:15:14.433Z,81.61
2024-04-18T06:20:16.168Z,81.90
2024-04-18T06:25:19.016Z,81.93
2024-04-18T06:30:20.673Z,81.74
2024-04-18T06:35:22.460Z,82.37
2024-04-18T06:40:25.741Z,81.44
2024-04-18T06:45:27.437Z,80.93
2024-04-18T06:50:29.053Z,80.47
2024-04-18T06:55:30.984Z,79.57
2024-04-18T07:00:32.632Z,79.93
2024-04-18T07:05:34.612Z,79.61
2024-04-18T07:10:36.213Z,78.80
2024-04-18T07:15:37.848Z,77.63
2024-04-18T07:20:39.475Z,76.39
2024-04-18T07:25:42.566Z,75.11
2024-04-18T07:30:44.154Z,74.36
2024-04-18T07:35:55.709Z,74.52
2024-04-18T07:40:57.313Z,73.97
2024-04-18T07:45:59.208Z,73.13
2024-04-18T07:51:00.888Z,73.00
2024-04-18T07:56:05.506Z,72.04
2024-04-18T08:01:11.205Z,71.29
2024-04-18T08:06:15.227Z,70.51
2024-04-18T08:11:52.417Z,70.14
2024-04-18T08:16:39.643Z,69.03
2024-04-18T08:21:41.233Z,69.91
2024-04-18T08:26:42.844Z,69.36
2024-04-18T08:31:44.451Z,68.98
2024-04-18T08:36:46.188Z,69.07
2024-04-18T08:41:47.730Z,68.82
2024-04-18T08:46:50.470Z,68.62
2024-04-18T08:51:52.437Z,68.49
2024-04-18T08:56:59.203Z,68.00
2024-04-18T09:02:01.958Z,67.89
2024-04-18T09:07:03.826Z,67.07
2024-04-18T09:12:07.609Z,68.13
2024-04-18T09:17:15.633Z,67.51
2024-04-18T09:22:18.763Z,68.11
2024-04-18T09:27:20.410Z,68.08
2024-04-18T09:32:23.418Z,68.48
2024-04-18T09:37:28.265Z,67.81
2024-04-18T09:42:41.868Z,67.90
2024-04-18T09:47:45.029Z,66.85
2024-04-18T09:52:48.483Z,66.57
2024-04-18T09:57:52.384Z,66.42
2024-04-18T10:02:54.863Z,66.84
2024-04-18T10:07:59.203Z,66.45
2024-04-18T10:13:02.418Z,66.83
2024-04-18T10:18:17.818Z,65.46
2024-04-18T10:23:22.345Z,66.93
2024-04-18T10:28:26.545Z,66.64
2024-04-18T10:33:32.218Z,58.81
2024-04-18T10:38:34.765Z,52.96
2024-04-18T10:43:37.091Z,48.51
2024-04-18T10:48:39.221Z,45.87
2024-04-18T10:53:40.848Z,43.64
2024-04-18T14:04:01.972Z,45.49
